Terminal Aerodrome Forecast
Issued by NWS

Home | Current Version | Previous Version | Text Only | Print | Product List | Glossary On
Versions: 1 2 3 4 5 6 7 8 9 10 11 12 13 14 15 16 17 18 19 20 21 22 23 24 25 26 27 28 29 30 31 32 33 34 35 36 37 38 39 40 41 42 43 44 45 46 47 48 49 50
000
FTAK31 PANC 270523
TAFADQ
TAF
PADQ 270523Z 2706/2806 15015KT P6SM -SHRA SCT025 BKN035
      TEMPO 2706/2709 5SM -SHRA BKN025
     FM270900 13010G20KT 6SM -SHRA BKN025
     FM271200 13012G24KT 5SM -RA BR SCT008 OVC015
     FM272100 11015KT 6SM -SHRA BKN022
     FM280400 08015G20KT 6SM -RA BKN022=

USA.gov is the U.S. government's official web portal to all federal, state and local government web resources and services.